Terminal Aerodrome Forecast
Issued by NWS

Home | Current Version | Previous Version | Text Only | Print | Product List | Glossary Off
Versions: 1 2 3 4 5 6 7 8 9 10 11 12 13 14 15 16 17 18 19 20 21

000
FTUS43 KGRB 271000 AAA
TAFMTW
TAF AMD
KMTW 271012Z 2710/2806 32010G15KT 6SM -SHSN SCT020 BKN029
     FM271300 32012G21KT P6SM -SN SCT025 BKN050
     FM272000 32009KT P6SM SCT050
     FM280000 29003KT P6SM SKC=

USA.gov is the U.S. government's official web portal to all federal, state and local government web resources and services.